createdAt,value
2017-08-06T00:01:58.639Z,75.09
2017-08-06T00:04:25.084Z,76.14
2017-08-06T00:06:57.897Z,77.36
2017-08-06T00:09:24.533Z,76.88
2017-08-06T00:11:51.134Z,77.29
2017-08-06T00:14:23.220Z,77.35
2017-08-06T00:16:49.978Z,76.95
2017-08-06T00:19:17.503Z,76.38
2017-08-06T00:21:49.365Z,76.16
2017-08-06T00:24:19.439Z,75.92
2017-08-06T00:26:46.048Z,75.80
2017-08-06T00:29:12.434Z,75.17
2017-08-06T00:31:39.728Z,75.43
2017-08-06T00:34:06.718Z,75.13
2017-08-06T00:36:33.293Z,74.55
2017-08-06T00:39:00.164Z,74.53
2017-08-06T00:41:26.755Z,74.70
2017-08-06T00:43:56.692Z,74.36
2017-08-06T00:46:23.208Z,73.97
2017-08-06T00:48:50.193Z,73.76
2017-08-06T00:51:16.956Z,73.51
2017-08-06T00:53:48.972Z,73.75
2017-08-06T00:56:15.561Z,74.51
2017-08-06T00:58:42.764Z,74.49
2017-08-06T01:01:09.232Z,74.04
2017-08-06T01:03:35.842Z,73.51
2017-08-06T01:06:08.055Z,72.55
2017-08-06T01:08:41.093Z,72.98
2017-08-06T01:11:07.554Z,72.25
2017-08-06T01:13:34.114Z,72.65
2017-08-06T01:16:02.320Z,72.68
2017-08-06T01:18:30.250Z,72.89
2017-08-06T01:21:00.155Z,72.63
2017-08-06T01:23:28.656Z,73.66
2017-08-06T01:25:57.266Z,73.88
2017-08-06T01:28:32.528Z,72.60
2017-08-06T01:31:06.434Z,72.48
2017-08-06T01:33:34.338Z,72.26
2017-08-06T01:36:00.805Z,71.83
2017-08-06T01:38:33.147Z,73.76
2017-08-06T01:41:00.291Z,74.57
2017-08-06T01:43:27.465Z,74.68
2017-08-06T01:45:57.507Z,73.94
2017-08-06T01:48:27.756Z,73.41
2017-08-06T01:50:59.484Z,74.23
2017-08-06T01:53:26.329Z,75.03
2017-08-06T01:55:52.787Z,74.75
2017-08-06T01:58:19.193Z,74.52
2017-08-06T02:00:45.606Z,74.26
2017-08-06T02:03:12.661Z,73.91
2017-08-06T02:05:39.063Z,74.59
2017-08-06T02:08:05.601Z,74.92
2017-08-06T02:10:32.146Z,74.67
2017-08-06T02:12:58.990Z,74.31
2017-08-06T02:15:25.555Z,74.90
2017-08-06T02:17:52.713Z,75.23
2017-08-06T02:20:19.658Z,75.04
2017-08-06T02:22:46.036Z,75.16
2017-08-06T02:25:12.729Z,75.47
2017-08-06T02:27:40.461Z,75.39
2017-08-06T02:30:12.181Z,74.68
2017-08-06T02:32:39.721Z,73.96
2017-08-06T02:35:06.105Z,73.83
2017-08-06T02:37:32.615Z,73.01
2017-08-06T02:39:59.306Z,73.92
2017-08-06T02:42:26.010Z,73.94
2017-08-06T02:44:52.507Z,74.95
2017-08-06T02:47:19.015Z,74.86
2017-08-06T02:49:51.063Z,75.08
2017-08-06T02:52:17.959Z,74.71
2017-08-06T02:54:45.241Z,74.72
2017-08-06T02:57:11.644Z,75.00
2017-08-06T02:59:38.467Z,75.04
2017-08-06T03:02:04.945Z,74.53
2017-08-06T03:04:36.718Z,73.64
2017-08-06T03:07:03.423Z,74.27
2017-08-06T03:09:29.877Z,74.10
2017-08-06T03:11:56.429Z,73.15
2017-08-06T03:14:23.246Z,73.95
2017-08-06T03:16:49.632Z,73.25
2017-08-06T03:19:16.104Z,73.42
2017-08-06T03:21:42.709Z,73.39
2017-08-06T03:24:09.101Z,73.28
2017-08-06T03:26:35.725Z,73.64
2017-08-06T03:29:02.178Z,74.10
2017-08-06T03:31:28.900Z,74.09
2017-08-06T03:34:03.000Z,74.04
2017-08-06T03:36:29.374Z,74.35
2017-08-06T03:38:55.736Z,74.14
2017-08-06T03:41:22.135Z,73.99
2017-08-06T03:43:48.521Z,72.75
2017-08-06T03:46:14.894Z,73.80
2017-08-06T03:48:41.287Z,73.54
2017-08-06T03:51:07.684Z,72.58
2017-08-06T03:53:34.070Z,72.99
2017-08-06T03:56:00.452Z,72.16
2017-08-06T03:58:26.818Z,71.75
2017-08-06T04:00:53.169Z,72.05
2017-08-06T04:03:19.576Z,71.77
2017-08-06T04:05:45.995Z,72.84
2017-08-06T04:08:12.459Z,72.48
2017-08-06T04:10:38.872Z,72.67
2017-08-06T04:13:05.285Z,73.60
2017-08-06T04:15:31.673Z,72.58
2017-08-06T04:17:58.069Z,73.47
2017-08-06T04:20:25.261Z,73.20
2017-08-06T04:22:51.608Z,72.42
2017-08-06T04:25:18.012Z,72.26
2017-08-06T04:27:44.426Z,72.23
2017-08-06T04:30:10.810Z,72.03
2017-08-06T04:32:37.201Z,72.17
2017-08-06T04:35:03.588Z,72.61
2017-08-06T04:37:30.007Z,73.35
2017-08-06T04:39:56.405Z,73.65
2017-08-06T04:42:22.801Z,73.91
2017-08-06T04:44:49.198Z,73.84
2017-08-06T04:47:15.632Z,73.53
2017-08-06T04:49:42.036Z,73.41
2017-08-06T04:52:08.428Z,73.37
2017-08-06T04:54:34.814Z,73.50
2017-08-06T04:57:01.167Z,73.76
2017-08-06T04:59:27.582Z,74.49
2017-08-06T05:01:53.969Z,73.80
2017-08-06T05:04:20.375Z,74.65
2017-08-06T05:06:46.763Z,74.65
2017-08-06T05:09:13.153Z,74.55
2017-08-06T05:11:39.531Z,74.46
2017-08-06T05:14:05.934Z,74.16
2017-08-06T05:16:32.290Z,74.94
2017-08-06T05:18:58.655Z,75.18
2017-08-06T05:21:25.032Z,74.44
2017-08-06T05:23:51.442Z,75.31
2017-08-06T05:26:17.815Z,75.02
2017-08-06T05:28:45.097Z,74.91
2017-08-06T05:31:11.553Z,74.49
2017-08-06T05:33:38.002Z,74.96
2017-08-06T05:36:04.401Z,75.44
2017-08-06T05:38:30.795Z,75.38
2017-08-06T05:40:57.202Z,75.88
2017-08-06T05:43:23.575Z,75.50
2017-08-06T05:45:49.960Z,75.60
2017-08-06T05:48:16.339Z,75.61
2017-08-06T05:50:42.707Z,76.31
2017-08-06T05:53:09.110Z,76.41
2017-08-06T05:55:35.525Z,77.15
2017-08-06T05:58:01.956Z,77.23
2017-08-06T06:00:28.352Z,77.17
2017-08-06T06:02:54.739Z,77.19
2017-08-06T06:05:21.126Z,76.97
2017-08-06T06:07:47.545Z,77.07
2017-08-06T06:10:13.952Z,76.77
2017-08-06T06:12:40.345Z,77.26
2017-08-06T06:15:06.754Z,78.17
2017-08-06T06:17:33.118Z,77.84
2017-08-06T06:19:59.492Z,78.49
2017-08-06T06:22:25.937Z,77.97
2017-08-06T06:24:52.352Z,77.54
2017-08-06T06:27:18.711Z,77.60
2017-08-06T06:29:45.087Z,78.27
2017-08-06T06:32:11.464Z,77.94
2017-08-06T06:34:37.849Z,77.75
2017-08-06T06:37:04.224Z,77.85
2017-08-06T06:39:30.608Z,77.97
2017-08-06T06:41:56.967Z,77.83
2017-08-06T06:44:23.332Z,77.54
2017-08-06T06:46:49.745Z,77.51
2017-08-06T06:49:17.035Z,77.76
2017-08-06T06:51:43.412Z,77.33
2017-08-06T06:54:09.757Z,77.38
2017-08-06T06:56:36.163Z,77.73
2017-08-06T06:59:02.575Z,77.23
2017-08-06T07:01:29.007Z,77.33
2017-08-06T07:03:55.397Z,76.72
2017-08-06T07:06:21.831Z,76.13
2017-08-06T07:08:48.269Z,76.28
2017-08-06T07:11:14.627Z,76.19
2017-08-06T07:13:41.020Z,76.24
2017-08-06T07:16:07.394Z,75.37
2017-08-06T07:18:33.785Z,75.49
2017-08-06T07:21:00.165Z,75.18
2017-08-06T07:23:26.620Z,74.30
2017-08-06T07:25:53.380Z,74.80
2017-08-06T07:28:19.776Z,75.20
2017-08-06T07:30:46.154Z,74.75
2017-08-06T07:33:12.575Z,74.72
2017-08-06T07:35:38.945Z,74.61
2017-08-06T07:38:05.336Z,74.42
2017-08-06T07:40:31.736Z,74.12
2017-08-06T07:42:58.146Z,73.38
2017-08-06T07:45:24.537Z,72.84
2017-08-06T07:47:50.923Z,73.46
2017-08-06T07:50:17.296Z,73.56
2017-08-06T07:52:43.680Z,73.48
2017-08-06T07:55:10.062Z,72.99
2017-08-06T07:57:36.415Z,72.21
2017-08-06T08:00:02.832Z,71.92
2017-08-06T08:02:29.212Z,71.92
2017-08-06T08:04:55.596Z,71.40
2017-08-06T08:07:21.968Z,69.35
2017-08-06T08:09:48.371Z,69.96
2017-08-06T08:12:14.793Z,71.55
2017-08-06T08:14:41.151Z,68.20
2017-08-06T08:17:07.512Z,66.92
2017-08-06T08:19:33.878Z,68.00
2017-08-06T08:22:00.330Z,68.36
2017-08-06T08:24:26.727Z,69.00
2017-08-06T08:26:53.108Z,67.38
2017-08-06T08:29:19.500Z,67.66
2017-08-06T08:31:45.889Z,67.04
2017-08-06T08:34:12.264Z,65.50
2017-08-06T08:36:38.639Z,64.72
2017-08-06T08:39:04.975Z,63.60
2017-08-06T08:41:31.514Z,64.39
2017-08-06T08:43:57.875Z,64.86
2017-08-06T08:46:24.255Z,64.38
2017-08-06T08:48:50.633Z,64.52
2017-08-06T08:51:17.033Z,62.35
2017-08-06T08:53:43.408Z,62.02
2017-08-06T08:56:09.787Z,61.72
2017-08-06T08:58:36.167Z,62.08
2017-08-06T09:01:02.545Z,60.92
2017-08-06T09:03:28.960Z,60.00
2017-08-06T09:05:55.659Z,58.81
2017-08-06T09:08:22.078Z,58.09
2017-08-06T09:10:48.473Z,57.35
2017-08-06T09:13:14.841Z,56.66
2017-08-06T09:15:41.302Z,56.99
2017-08-06T09:18:07.727Z,55.39
2017-08-06T09:20:34.096Z,54.48
2017-08-06T09:23:00.465Z,54.89
2017-08-06T09:25:26.836Z,55.47
2017-08-06T09:27:53.232Z,55.39
2017-08-06T09:30:19.618Z,55.52
2017-08-06T09:32:46.033Z,54.91
2017-08-06T09:35:12.409Z,55.02
2017-08-06T09:37:38.820Z,55.61
2017-08-06T09:40:05.183Z,54.48
2017-08-06T09:42:31.576Z,54.67
2017-08-06T09:44:57.962Z,53.86
2017-08-06T09:47:24.544Z,53.23
2017-08-06T09:49:50.947Z,50.70
2017-08-06T09:52:17.319Z,50.71
2017-08-06T09:54:43.682Z,49.44
2017-08-06T09:57:10.083Z,49.26
2017-08-06T09:59:36.464Z,50.21
2017-08-06T10:02:02.837Z,50.14
2017-08-06T10:04:29.236Z,50.04
2017-08-06T10:06:55.645Z,48.66
2017-08-06T10:09:22.024Z,50.36
2017-08-06T10:11:48.401Z,48.75
2017-08-06T10:14:14.777Z,48.92
2017-08-06T10:16:41.146Z,49.88
2017-08-06T10:19:07.572Z,50.20
2017-08-06T10:21:33.955Z,47.17
2017-08-06T10:24:00.346Z,47.16
2017-08-06T10:26:26.777Z,45.63
2017-08-06T10:28:53.137Z,47.12
2017-08-06T10:31:20.028Z,46.07
2017-08-06T10:33:46.410Z,46.39
2017-08-06T10:36:12.893Z,45.72
2017-08-06T10:38:39.296Z,46.21
2017-08-06T10:41:05.680Z,45.12
2017-08-06T10:43:32.092Z,45.42
2017-08-06T10:45:58.493Z,44.31
2017-08-06T10:48:24.877Z,45.16
2017-08-06T10:50:51.252Z,44.98
2017-08-06T10:53:17.632Z,47.30
2017-08-06T10:55:44.024Z,44.65
2017-08-06T10:58:10.402Z,43.84
2017-08-06T11:00:36.787Z,45.49
2017-08-06T11:03:03.177Z,44.40
2017-08-06T11:05:29.585Z,43.67
2017-08-06T11:07:55.951Z,43.65
2017-08-06T11:10:22.347Z,44.10
2017-08-06T11:12:48.749Z,43.50
2017-08-06T11:15:15.137Z,43.26
2017-08-06T11:17:41.525Z,42.42
2017-08-06T11:20:07.921Z,43.93
2017-08-06T11:22:34.304Z,41.82
2017-08-06T11:25:00.720Z,41.48
2017-08-06T11:27:27.119Z,43.19
2017-08-06T11:29:53.512Z,42.55
2017-08-06T11:32:19.904Z,41.30
2017-08-06T11:34:46.289Z,40.89
2017-08-06T11:37:12.680Z,41.25
2017-08-06T11:39:39.081Z,40.34
2017-08-06T11:42:05.452Z,40.88
2017-08-06T11:44:31.858Z,41.51
2017-08-06T11:46:58.187Z,43.70
2017-08-06T11:49:24.572Z,41.84
2017-08-06T11:51:50.962Z,39.48
2017-08-06T11:54:17.341Z,39.54
2017-08-06T11:56:43.719Z,39.78
2017-08-06T11:59:10.134Z,40.50
2017-08-06T12:01:36.559Z,40.28
2017-08-06T12:04:02.974Z,40.35
2017-08-06T12:06:29.418Z,42.95
2017-08-06T12:08:55.777Z,39.96
2017-08-06T12:11:22.125Z,39.38
2017-08-06T12:13:48.503Z,40.86
2017-08-06T12:16:14.848Z,37.96
2017-08-06T12:18:41.228Z,38.41
2017-08-06T12:21:07.593Z,38.34
2017-08-06T12:23:33.953Z,38.16
2017-08-06T12:26:00.342Z,37.53
2017-08-06T12:28:26.685Z,38.69
2017-08-06T12:30:53.046Z,37.88
2017-08-06T12:33:19.410Z,38.50
2017-08-06T12:35:45.772Z,39.34
2017-08-06T12:38:12.158Z,38.38
2017-08-06T12:40:38.524Z,39.08
2017-08-06T12:43:04.906Z,38.92
2017-08-06T12:45:31.237Z,37.05
2017-08-06T12:47:57.605Z,38.32
2017-08-06T12:50:23.952Z,36.94
2017-08-06T12:52:50.325Z,37.96
2017-08-06T12:55:16.689Z,37.13
2017-08-06T12:57:43.061Z,34.95
2017-08-06T13:00:09.444Z,35.05
2017-08-06T13:02:35.849Z,35.43
2017-08-06T13:05:02.231Z,33.84
2017-08-06T13:07:28.585Z,34.16
2017-08-06T13:09:54.957Z,35.58
2017-08-06T13:12:21.324Z,34.88
2017-08-06T13:14:47.702Z,33.72
2017-08-06T13:17:14.048Z,33.78
2017-08-06T13:19:40.453Z,35.33
2017-08-06T13:22:06.845Z,34.09
2017-08-06T13:24:33.202Z,33.46
2017-08-06T13:26:59.570Z,32.88
2017-08-06T13:29:25.915Z,32.38
2017-08-06T13:31:52.275Z,33.51
2017-08-06T13:34:18.699Z,34.04
2017-08-06T13:36:45.066Z,32.09
2017-08-06T13:39:11.463Z,31.66
2017-08-06T13:41:37.847Z,31.53
2017-08-06T13:44:04.341Z,31.75
2017-08-06T13:46:30.841Z,32.58
2017-08-06T13:48:59.480Z,31.48
2017-08-06T13:51:25.877Z,32.19
2017-08-06T13:53:52.245Z,29.78
2017-08-06T13:56:18.652Z,31.65
2017-08-06T13:58:45.011Z,31.10
2017-08-06T14:01:11.366Z,31.84
2017-08-06T14:03:37.762Z,32.40
2017-08-06T14:06:04.212Z,32.45
2017-08-06T14:08:30.577Z,32.72
2017-08-06T14:10:56.964Z,33.14
2017-08-06T14:13:23.374Z,32.46
2017-08-06T14:15:49.759Z,32.63
2017-08-06T14:18:16.137Z,32.42
2017-08-06T14:20:42.521Z,32.67
2017-08-06T14:23:08.899Z,32.91
2017-08-06T14:25:35.277Z,33.45
2017-08-06T14:28:01.651Z,32.72
2017-08-06T14:30:28.018Z,32.52
2017-08-06T14:32:54.510Z,33.88
2017-08-06T14:35:20.891Z,33.20
2017-08-06T14:37:47.250Z,33.63
2017-08-06T14:40:14.246Z,33.88
2017-08-06T14:42:40.643Z,34.28
2017-08-06T14:45:07.037Z,34.28
2017-08-06T14:47:33.419Z,32.79
2017-08-06T14:49:59.827Z,33.18
2017-08-06T14:52:26.202Z,33.44
2017-08-06T14:54:52.578Z,32.99
2017-08-06T14:57:18.956Z,32.67
2017-08-06T14:59:45.394Z,34.22
2017-08-06T15:02:11.742Z,33.96
2017-08-06T15:04:38.111Z,34.81
2017-08-06T15:07:04.468Z,33.61
2017-08-06T15:09:30.823Z,33.58
2017-08-06T15:11:57.216Z,33.88
2017-08-06T15:14:23.570Z,32.02
2017-08-06T15:16:49.973Z,32.96
2017-08-06T15:19:16.349Z,32.23
2017-08-06T15:21:42.717Z,32.51
2017-08-06T15:24:09.091Z,33.13
2017-08-06T15:26:35.477Z,34.18
2017-08-06T15:29:01.863Z,33.83
2017-08-06T15:31:28.253Z,35.18
2017-08-06T15:33:54.628Z,35.73
2017-08-06T15:36:21.020Z,35.24
2017-08-06T15:38:47.418Z,34.33
2017-08-06T15:41:13.767Z,35.20
2017-08-06T15:43:40.159Z,34.88
2017-08-06T15:46:06.519Z,34.41
2017-08-06T15:48:32.926Z,35.42
2017-08-06T15:50:59.364Z,36.80
2017-08-06T15:53:25.760Z,35.53
2017-08-06T15:55:52.145Z,34.75
2017-08-06T15:58:18.523Z,33.88
2017-08-06T16:00:44.909Z,34.10
2017-08-06T16:03:11.327Z,33.84
2017-08-06T16:05:37.719Z,32.63
2017-08-06T16:08:04.109Z,32.53
2017-08-06T16:10:30.481Z,33.70
2017-08-06T16:12:56.895Z,33.92
2017-08-06T16:15:23.290Z,34.22
2017-08-06T16:17:49.691Z,34.57
2017-08-06T16:20:16.056Z,34.42
2017-08-06T16:22:42.403Z,34.48
2017-08-06T16:25:08.859Z,34.20
2017-08-06T16:27:35.250Z,33.27
2017-08-06T16:30:01.681Z,34.48
2017-08-06T16:32:28.085Z,34.35
2017-08-06T16:34:54.511Z,34.32
2017-08-06T16:37:20.881Z,34.87
2017-08-06T16:39:47.277Z,34.23
2017-08-06T16:42:13.638Z,34.38
2017-08-06T16:44:40.019Z,35.80
2017-08-06T16:47:06.403Z,34.43
2017-08-06T16:49:32.806Z,33.98
2017-08-06T16:51:59.218Z,34.98
2017-08-06T16:54:25.628Z,35.36
2017-08-06T16:56:52.076Z,35.86
2017-08-06T16:59:18.469Z,35.76
2017-08-06T17:01:44.854Z,36.14
2017-08-06T17:04:11.227Z,35.90
2017-08-06T17:06:37.717Z,35.96
2017-08-06T17:09:04.178Z,35.33
2017-08-06T17:11:30.600Z,35.58
2017-08-06T17:13:56.985Z,34.26
2017-08-06T17:16:23.388Z,34.97
2017-08-06T17:18:49.877Z,34.64
2017-08-06T17:21:16.255Z,35.34
2017-08-06T17:23:42.696Z,36.25
2017-08-06T17:26:09.074Z,35.83
2017-08-06T17:28:35.494Z,36.26
2017-08-06T17:31:01.850Z,37.77
2017-08-06T17:33:28.241Z,37.61
2017-08-06T17:35:54.594Z,37.43
2017-08-06T17:38:20.988Z,37.41
2017-08-06T17:40:47.360Z,37.57
2017-08-06T17:43:13.725Z,38.40
2017-08-06T17:45:40.171Z,38.69
2017-08-06T17:48:06.532Z,38.89
2017-08-06T17:50:32.901Z,39.24
2017-08-06T17:52:59.263Z,38.33
2017-08-06T17:55:25.644Z,39.39
2017-08-06T17:57:52.046Z,39.99
2017-08-06T18:00:18.479Z,39.35
2017-08-06T18:02:44.900Z,40.30
2017-08-06T18:05:11.268Z,40.37
2017-08-06T18:07:37.701Z,40.58
2017-08-06T18:10:04.090Z,41.27
2017-08-06T18:12:30.484Z,41.15
2017-08-06T18:14:56.863Z,41.37
2017-08-06T18:17:23.245Z,42.14
2017-08-06T18:19:49.646Z,42.03
2017-08-06T18:22:16.026Z,43.27
2017-08-06T18:24:42.384Z,43.18
2017-08-06T18:27:08.756Z,43.55
2017-08-06T18:29:35.114Z,43.75
2017-08-06T18:32:01.488Z,44.69
2017-08-06T18:34:27.875Z,45.50
2017-08-06T18:36:54.297Z,46.25
2017-08-06T18:39:20.661Z,46.63
2017-08-06T18:41:47.045Z,47.05
2017-08-06T18:44:13.448Z,47.74
2017-08-06T18:46:39.821Z,47.16
2017-08-06T18:49:06.222Z,47.62
2017-08-06T18:51:32.578Z,48.21
2017-08-06T18:53:58.949Z,48.21
2017-08-06T18:56:25.337Z,48.57
2017-08-06T18:58:51.740Z,47.66
2017-08-06T19:01:18.146Z,48.12
2017-08-06T19:03:44.535Z,48.46
2017-08-06T19:06:10.918Z,48.67
2017-08-06T19:08:37.314Z,49.12
2017-08-06T19:11:03.701Z,49.73
2017-08-06T19:13:30.073Z,50.74
2017-08-06T19:15:56.463Z,50.72
2017-08-06T19:18:22.924Z,51.02
2017-08-06T19:20:49.297Z,50.06
2017-08-06T19:23:16.053Z,51.02
2017-08-06T19:25:42.453Z,51.13
2017-08-06T19:28:08.851Z,51.54
2017-08-06T19:30:35.249Z,51.86
2017-08-06T19:33:01.638Z,52.04
2017-08-06T19:35:28.110Z,52.46
2017-08-06T19:37:54.501Z,52.40
2017-08-06T19:40:20.893Z,51.98
2017-08-06T19:42:47.286Z,51.95
2017-08-06T19:45:13.691Z,52.93
2017-08-06T19:47:40.064Z,52.24
2017-08-06T19:50:06.725Z,53.14
2017-08-06T19:52:33.063Z,53.66
2017-08-06T19:54:59.473Z,53.62
2017-08-06T19:57:25.843Z,53.86
2017-08-06T19:59:52.235Z,53.21
2017-08-06T20:02:18.848Z,53.31
2017-08-06T20:04:45.512Z,52.69
2017-08-06T20:07:11.891Z,53.23
2017-08-06T20:09:40.214Z,54.02
2017-08-06T20:12:06.597Z,54.54
2017-08-06T20:14:32.954Z,54.73
2017-08-06T20:16:59.327Z,54.55
2017-08-06T20:19:25.712Z,54.96
2017-08-06T20:21:52.161Z,54.54
2017-08-06T20:24:18.504Z,54.44
2017-08-06T20:26:44.911Z,54.54
2017-08-06T20:29:11.328Z,54.30
2017-08-06T20:31:37.709Z,54.25
2017-08-06T20:34:04.221Z,54.17
2017-08-06T20:36:30.781Z,55.11
2017-08-06T20:38:57.265Z,55.09
2017-08-06T20:41:23.635Z,55.28
2017-08-06T20:43:50.065Z,55.36
2017-08-06T20:46:16.871Z,55.97
2017-08-06T20:48:43.286Z,56.42
2017-08-06T20:51:09.634Z,56.18
2017-08-06T20:53:35.979Z,55.98
2017-08-06T20:56:02.384Z,55.68
2017-08-06T20:58:28.788Z,55.34
2017-08-06T21:00:55.150Z,56.27
2017-08-06T21:03:21.501Z,56.01
2017-08-06T21:05:47.899Z,56.28
2017-08-06T21:08:14.285Z,55.95
2017-08-06T21:10:40.666Z,55.95
2017-08-06T21:13:07.019Z,56.07
2017-08-06T21:15:33.398Z,55.68
2017-08-06T21:17:59.768Z,56.17
2017-08-06T21:20:26.125Z,55.91
2017-08-06T21:22:52.533Z,55.93
2017-08-06T21:25:18.909Z,56.21
2017-08-06T21:27:45.270Z,55.65
2017-08-06T21:30:11.628Z,56.44
2017-08-06T21:32:38.013Z,56.32
2017-08-06T21:35:04.371Z,56.28
2017-08-06T21:37:30.720Z,56.77
2017-08-06T21:39:57.092Z,56.62
2017-08-06T21:42:23.465Z,57.08
2017-08-06T21:44:49.856Z,56.75
2017-08-06T21:47:16.180Z,57.66
2017-08-06T21:49:42.560Z,57.70
2017-08-06T21:52:13.410Z,58.81
2017-08-06T21:54:39.940Z,58.82
2017-08-06T21:57:06.289Z,58.00
2017-08-06T21:59:32.671Z,57.90
2017-08-06T22:01:59.056Z,57.87
2017-08-06T22:04:25.561Z,58.03
2017-08-06T22:06:51.918Z,57.28
2017-08-06T22:09:18.285Z,58.71
2017-08-06T22:11:44.645Z,60.18
2017-08-06T22:14:11.013Z,59.34
2017-08-06T22:16:37.456Z,60.12
2017-08-06T22:19:03.810Z,59.64
2017-08-06T22:21:32.765Z,59.89
2017-08-06T22:23:59.093Z,59.52
2017-08-06T22:26:25.440Z,58.88
2017-08-06T22:28:51.764Z,58.60
2017-08-06T22:31:18.125Z,58.32
2017-08-06T22:33:44.458Z,58.60
2017-08-06T22:36:10.798Z,58.16
2017-08-06T22:38:37.164Z,57.96
2017-08-06T22:41:03.510Z,58.73
2017-08-06T22:43:29.838Z,59.24
2017-08-06T22:45:56.211Z,58.67
2017-08-06T22:48:22.579Z,58.66
2017-08-06T22:50:48.929Z,58.37
2017-08-06T22:53:15.270Z,58.31
2017-08-06T22:55:41.633Z,58.13
2017-08-06T22:58:08.036Z,58.36
2017-08-06T23:00:34.395Z,57.64
2017-08-06T23:03:00.755Z,59.08
2017-08-06T23:05:27.132Z,60.09
2017-08-06T23:07:53.485Z,59.94
2017-08-06T23:10:19.862Z,60.08
2017-08-06T23:12:46.221Z,60.50
2017-08-06T23:15:12.566Z,60.34
2017-08-06T23:17:38.951Z,60.32
2017-08-06T23:20:05.334Z,60.59
2017-08-06T23:22:31.698Z,60.20
2017-08-06T23:24:58.043Z,60.56
2017-08-06T23:27:24.382Z,60.31
2017-08-06T23:29:50.736Z,61.12
2017-08-06T23:32:17.092Z,61.06
2017-08-06T23:34:43.512Z,60.56
2017-08-06T23:37:09.935Z,61.49
2017-08-06T23:39:36.440Z,61.23
2017-08-06T23:42:02.820Z,60.03
2017-08-06T23:44:29.206Z,60.01
2017-08-06T23:46:55.630Z,60.12
2017-08-06T23:49:22.017Z,59.79
2017-08-06T23:51:48.387Z,59.74
2017-08-06T23:54:14.772Z,59.23
2017-08-06T23:56:41.160Z,59.43
2017-08-06T23:59:07.610Z,59.37
